sensor_id;sensor_type;location;lat;lon;timestamp;P1;durP1;ratioP1;P2;durP2;ratioP2
68543;SDS011;55534;52.222;5.156;2023-06-10T00:02:21;5.78;;;3.40;;
68543;SDS011;55534;52.222;5.156;2023-06-10T00:04:46;5.18;;;3.45;;
68543;SDS011;55534;52.222;5.156;2023-06-10T00:07:12;7.22;;;3.85;;
68543;SDS011;55534;52.222;5.156;2023-06-10T00:09:38;7.20;;;3.40;;
68543;SDS011;55534;52.222;5.156;2023-06-10T00:12:04;6.55;;;3.80;;
68543;SDS011;55534;52.222;5.156;2023-06-10T00:14:31;7.90;;;3.63;;
68543;SDS011;55534;52.222;5.156;2023-06-10T00:16:57;4.55;;;3.42;;
68543;SDS011;55534;52.222;5.156;2023-06-10T00:19:23;7.70;;;3.47;;
68543;SDS011;55534;52.222;5.156;2023-06-10T00:21:51;6.15;;;3.80;;
68543;SDS011;55534;52.222;5.156;2023-06-10T00:24:17;6.20;;;3.72;;
68543;SDS011;55534;52.222;5.156;2023-06-10T00:26:43;6.85;;;3.85;;
68543;SDS011;55534;52.222;5.156;2023-06-10T00:29:09;7.07;;;3.55;;
68543;SDS011;55534;52.222;5.156;2023-06-10T00:31:35;8.07;;;3.70;;
68543;SDS011;55534;52.222;5.156;2023-06-10T00:34:02;7.82;;;3.60;;
68543;SDS011;55534;52.222;5.156;2023-06-10T00:36:27;5.72;;;3.72;;
68543;SDS011;55534;52.222;5.156;2023-06-10T00:38:56;5.80;;;3.70;;
68543;SDS011;55534;52.222;5.156;2023-06-10T00:41:22;7.22;;;3.47;;
68543;SDS011;55534;52.222;5.156;2023-06-10T00:43:49;6.07;;;4.22;;
68543;SDS011;55534;52.222;5.156;2023-06-10T00:46:14;5.78;;;3.67;;
68543;SDS011;55534;52.222;5.156;2023-06-10T00:48:41;4.95;;;3.50;;
68543;SDS011;55534;52.222;5.156;2023-06-10T00:51:08;6.47;;;3.72;;
68543;SDS011;55534;52.222;5.156;2023-06-10T00:53:39;5.72;;;3.50;;
68543;SDS011;55534;52.222;5.156;2023-06-10T00:56:06;7.40;;;4.03;;
68543;SDS011;55534;52.222;5.156;2023-06-10T00:58:32;8.27;;;3.63;;
68543;SDS011;55534;52.222;5.156;2023-06-10T01:00:57;7.18;;;3.42;;
68543;SDS011;55534;52.222;5.156;2023-06-10T01:03:26;6.13;;;3.58;;
68543;SDS011;55534;52.222;5.156;2023-06-10T01:06:54;5.97;;;3.33;;
68543;SDS011;55534;52.222;5.156;2023-06-10T01:14:41;7.85;;;3.30;;
68543;SDS011;55534;52.222;5.156;2023-06-10T01:17:10;5.85;;;3.60;;
68543;SDS011;55534;52.222;5.156;2023-06-10T01:19:36;5.18;;;3.13;;
68543;SDS011;55534;52.222;5.156;2023-06-10T01:22:02;6.32;;;3.53;;
68543;SDS011;55534;52.222;5.156;2023-06-10T01:24:28;6.38;;;3.45;;
68543;SDS011;55534;52.222;5.156;2023-06-10T01:26:59;9.85;;;3.88;;
68543;SDS011;55534;52.222;5.156;2023-06-10T01:29:33;5.32;;;3.22;;
68543;SDS011;55534;52.222;5.156;2023-06-10T01:32:08;7.70;;;3.60;;
68543;SDS011;55534;52.222;5.156;2023-06-10T01:34:40;5.97;;;3.47;;
68543;SDS011;55534;52.222;5.156;2023-06-10T01:37:08;6.30;;;3.28;;
68543;SDS011;55534;52.222;5.156;2023-06-10T01:39:38;5.55;;;3.65;;
68543;SDS011;55534;52.222;5.156;2023-06-10T01:42:04;5.07;;;3.15;;
68543;SDS011;55534;52.222;5.156;2023-06-10T01:44:31;6.72;;;3.55;;
68543;SDS011;55534;52.222;5.156;2023-06-10T01:46:57;6.20;;;3.80;;
68543;SDS011;55534;52.222;5.156;2023-06-10T01:49:22;8.40;;;3.92;;
68543;SDS011;55534;52.222;5.156;2023-06-10T01:51:49;9.05;;;3.80;;
68543;SDS011;55534;52.222;5.156;2023-06-10T01:54:14;10.02;;;3.60;;
68543;SDS011;55534;52.222;5.156;2023-06-10T01:56:40;7.22;;;3.42;;
68543;SDS011;55534;52.222;5.156;2023-06-10T01:59:05;6.72;;;3.75;;
68543;SDS011;55534;52.222;5.156;2023-06-10T02:01:31;6.28;;;3.72;;
68543;SDS011;55534;52.222;5.156;2023-06-10T02:03:56;6.00;;;3.53;;
68543;SDS011;55534;52.222;5.156;2023-06-10T02:06:21;9.32;;;3.78;;
68543;SDS011;55534;52.222;5.156;2023-06-10T02:08:47;5.28;;;3.50;;
68543;SDS011;55534;52.222;5.156;2023-06-10T02:11:12;6.65;;;3.50;;
68543;SDS011;55534;52.222;5.156;2023-06-10T02:13:38;7.05;;;3.40;;
68543;SDS011;55534;52.222;5.156;2023-06-10T02:16:03;6.45;;;3.45;;
68543;SDS011;55534;52.222;5.156;2023-06-10T02:18:30;7.30;;;3.70;;
68543;SDS011;55534;52.222;5.156;2023-06-10T02:20:56;6.20;;;3.65;;
68543;SDS011;55534;52.222;5.156;2023-06-10T02:23:21;6.03;;;3.67;;
68543;SDS011;55534;52.222;5.156;2023-06-10T02:25:47;7.10;;;3.75;;
68543;SDS011;55534;52.222;5.156;2023-06-10T02:28:13;6.25;;;3.53;;
68543;SDS011;55534;52.222;5.156;2023-06-10T02:30:42;10.05;;;4.10;;
68543;SDS011;55534;52.222;5.156;2023-06-10T02:33:08;7.18;;;3.88;;
68543;SDS011;55534;52.222;5.156;2023-06-10T02:35:38;6.78;;;3.70;;
68543;SDS011;55534;52.222;5.156;2023-06-10T02:38:04;7.32;;;3.85;;
68543;SDS011;55534;52.222;5.156;2023-06-10T02:40:31;5.28;;;3.47;;
68543;SDS011;55534;52.222;5.156;2023-06-10T02:42:57;6.65;;;4.13;;
68543;SDS011;55534;52.222;5.156;2023-06-10T02:45:23;4.75;;;3.67;;
68543;SDS011;55534;52.222;5.156;2023-06-10T02:47:49;8.98;;;4.95;;
68543;SDS011;55534;52.222;5.156;2023-06-10T02:50:15;6.60;;;4.05;;
68543;SDS011;55534;52.222;5.156;2023-06-10T02:52:54;15.23;;;5.63;;
68543;SDS011;55534;52.222;5.156;2023-06-10T02:55:20;9.95;;;4.47;;
68543;SDS011;55534;52.222;5.156;2023-06-10T02:57:51;7.47;;;4.05;;
68543;SDS011;55534;52.222;5.156;2023-06-10T03:00:19;6.90;;;3.72;;
68543;SDS011;55534;52.222;5.156;2023-06-10T03:02:46;9.48;;;4.43;;
68543;SDS011;55534;52.222;5.156;2023-06-10T03:05:12;8.13;;;4.40;;
68543;SDS011;55534;52.222;5.156;2023-06-10T03:07:41;8.25;;;3.80;;
68543;SDS011;55534;52.222;5.156;2023-06-10T03:10:06;6.22;;;4.43;;
68543;SDS011;55534;52.222;5.156;2023-06-10T03:12:34;10.85;;;3.97;;
68543;SDS011;55534;52.222;5.156;2023-06-10T03:15:00;8.00;;;4.05;;
68543;SDS011;55534;52.222;5.156;2023-06-10T03:17:26;4.93;;;3.25;;
68543;SDS011;55534;52.222;5.156;2023-06-10T03:19:52;11.30;;;5.22;;
68543;SDS011;55534;52.222;5.156;2023-06-10T03:22:18;4.68;;;3.90;;
68543;SDS011;55534;52.222;5.156;2023-06-10T03:25:04;10.05;;;4.07;;
68543;SDS011;55534;52.222;5.156;2023-06-10T03:27:30;7.90;;;3.83;;
68543;SDS011;55534;52.222;5.156;2023-06-10T03:29:59;4.68;;;3.80;;
68543;SDS011;55534;52.222;5.156;2023-06-10T03:32:25;5.60;;;3.88;;
68543;SDS011;55534;52.222;5.156;2023-06-10T03:34:51;8.55;;;4.63;;
68543;SDS011;55534;52.222;5.156;2023-06-10T03:37:23;9.70;;;4.78;;
68543;SDS011;55534;52.222;5.156;2023-06-10T03:39:49;6.05;;;4.40;;
68543;SDS011;55534;52.222;5.156;2023-06-10T03:42:15;6.82;;;3.88;;
68543;SDS011;55534;52.222;5.156;2023-06-10T03:44:41;7.95;;;4.18;;
68543;SDS011;55534;52.222;5.156;2023-06-10T03:47:06;7.43;;;4.22;;
68543;SDS011;55534;52.222;5.156;2023-06-10T03:49:32;9.00;;;4.80;;
68543;SDS011;55534;52.222;5.156;2023-06-10T03:52:00;7.18;;;4.07;;
68543;SDS011;55534;52.222;5.156;2023-06-10T03:54:25;6.47;;;3.92;;
68543;SDS011;55534;52.222;5.156;2023-06-10T03:56:51;7.05;;;4.00;;
68543;SDS011;55534;52.222;5.156;2023-06-10T03:59:16;7.78;;;3.97;;
68543;SDS011;55534;52.222;5.156;2023-06-10T04:01:42;6.60;;;4.07;;
68543;SDS011;55534;52.222;5.156;2023-06-10T04:04:08;5.95;;;4.47;;
68543;SDS011;55534;52.222;5.156;2023-06-10T04:06:34;8.73;;;4.35;;
68543;SDS011;55534;52.222;5.156;2023-06-10T04:08:59;7.65;;;3.85;;
68543;SDS011;55534;52.222;5.156;2023-06-10T04:11:27;8.38;;;4.82;;
68543;SDS011;55534;52.222;5.156;2023-06-10T04:13:52;6.50;;;4.32;;
68543;SDS011;55534;52.222;5.156;2023-06-10T04:16:18;7.28;;;3.92;;
68543;SDS011;55534;52.222;5.156;2023-06-10T04:18:43;6.50;;;4.35;;
68543;SDS011;55534;52.222;5.156;2023-06-10T04:21:10;18.58;;;6.40;;
68543;SDS011;55534;52.222;5.156;2023-06-10T04:23:35;7.50;;;4.68;;
68543;SDS011;55534;52.222;5.156;2023-06-10T04:26:02;9.07;;;4.13;;
68543;SDS011;55534;52.222;5.156;2023-06-10T04:28:28;6.25;;;4.50;;
68543;SDS011;55534;52.222;5.156;2023-06-10T04:30:55;7.60;;;4.68;;
68543;SDS011;55534;52.222;5.156;2023-06-10T04:33:20;6.07;;;4.35;;
68543;SDS011;55534;52.222;5.156;2023-06-10T04:35:46;7.47;;;4.28;;
68543;SDS011;55534;52.222;5.156;2023-06-10T04:38:13;8.95;;;4.43;;
68543;SDS011;55534;52.222;5.156;2023-06-10T04:40:39;7.60;;;5.25;;
68543;SDS011;55534;52.222;5.156;2023-06-10T04:43:05;9.18;;;4.45;;
68543;SDS011;55534;52.222;5.156;2023-06-10T04:45:32;6.70;;;4.75;;
68543;SDS011;55534;52.222;5.156;2023-06-10T04:47:58;7.07;;;4.70;;
68543;SDS011;55534;52.222;5.156;2023-06-10T04:50:25;8.32;;;4.25;;
68543;SDS011;55534;52.222;5.156;2023-06-10T04:52:50;9.73;;;4.72;;
68543;SDS011;55534;52.222;5.156;2023-06-10T04:55:16;12.20;;;5.72;;
68543;SDS011;55534;52.222;5.156;2023-06-10T04:57:41;9.32;;;4.35;;
68543;SDS011;55534;52.222;5.156;2023-06-10T05:00:07;11.65;;;4.53;;
68543;SDS011;55534;52.222;5.156;2023-06-10T05:02:33;7.40;;;4.15;;
68543;SDS011;55534;52.222;5.156;2023-06-10T05:04:59;9.38;;;4.32;;
68543;SDS011;55534;52.222;5.156;2023-06-10T05:07:25;9.90;;;5.05;;
68543;SDS011;55534;52.222;5.156;2023-06-10T05:09:50;9.63;;;4.13;;
68543;SDS011;55534;52.222;5.156;2023-06-10T05:12:15;7.65;;;4.47;;
68543;SDS011;55534;52.222;5.156;2023-06-10T05:14:41;9.88;;;4.45;;
68543;SDS011;55534;52.222;5.156;2023-06-10T05:17:06;7.70;;;5.07;;
68543;SDS011;55534;52.222;5.156;2023-06-10T05:19:32;10.30;;;4.82;;
68543;SDS011;55534;52.222;5.156;2023-06-10T05:21:57;8.35;;;4.70;;
68543;SDS011;55534;52.222;5.156;2023-06-10T05:24:23;6.63;;;4.43;;
68543;SDS011;55534;52.222;5.156;2023-06-10T05:26:48;9.38;;;4.20;;
68543;SDS011;55534;52.222;5.156;2023-06-10T05:29:14;7.03;;;4.38;;
68543;SDS011;55534;52.222;5.156;2023-06-10T05:31:40;9.63;;;5.07;;
68543;SDS011;55534;52.222;5.156;2023-06-10T05:34:06;7.88;;;4.70;;
68543;SDS011;55534;52.222;5.156;2023-06-10T05:36:31;8.05;;;4.93;;
68543;SDS011;55534;52.222;5.156;2023-06-10T05:38:58;9.80;;;5.10;;
68543;SDS011;55534;52.222;5.156;2023-06-10T05:41:23;8.05;;;4.20;;
68543;SDS011;55534;52.222;5.156;2023-06-10T05:43:48;6.10;;;4.10;;
68543;SDS011;55534;52.222;5.156;2023-06-10T05:46:14;6.68;;;5.05;;
68543;SDS011;55534;52.222;5.156;2023-06-10T05:48:39;8.23;;;4.68;;
68543;SDS011;55534;52.222;5.156;2023-06-10T05:51:05;9.40;;;5.15;;
68543;SDS011;55534;52.222;5.156;2023-06-10T05:53:33;8.98;;;5.10;;
68543;SDS011;55534;52.222;5.156;2023-06-10T05:55:58;9.68;;;4.93;;
68543;SDS011;55534;52.222;5.156;2023-06-10T05:58:24;7.18;;;4.65;;
68543;SDS011;55534;52.222;5.156;2023-06-10T06:00:50;9.02;;;5.35;;
68543;SDS011;55534;52.222;5.156;2023-06-10T06:03:15;10.35;;;5.25;;
68543;SDS011;55534;52.222;5.156;2023-06-10T06:05:41;7.70;;;5.22;;
68543;SDS011;55534;52.222;5.156;2023-06-10T06:08:06;7.93;;;5.00;;
68543;SDS011;55534;52.222;5.156;2023-06-10T06:10:33;8.27;;;5.05;;
68543;SDS011;55534;52.222;5.156;2023-06-10T06:12:58;9.35;;;5.38;;
68543;SDS011;55534;52.222;5.156;2023-06-10T06:15:24;7.70;;;4.90;;
68543;SDS011;55534;52.222;5.156;2023-06-10T06:17:50;9.02;;;5.80;;
68543;SDS011;55534;52.222;5.156;2023-06-10T06:20:20;7.72;;;4.65;;
68543;SDS011;55534;52.222;5.156;2023-06-10T06:22:46;11.40;;;5.28;;
68543;SDS011;55534;52.222;5.156;2023-06-10T06:25:12;6.65;;;4.65;;
68543;SDS011;55534;52.222;5.156;2023-06-10T06:27:38;6.75;;;4.47;;
68543;SDS011;55534;52.222;5.156;2023-06-10T06:30:03;10.82;;;5.07;;
68543;SDS011;55534;52.222;5.156;2023-06-10T06:32:29;6.78;;;4.53;;
68543;SDS011;55534;52.222;5.156;2023-06-10T06:34:55;5.50;;;4.53;;
68543;SDS011;55534;52.222;5.156;2023-06-10T06:37:21;8.60;;;4.70;;
68543;SDS011;55534;52.222;5.156;2023-06-10T06:39:50;9.50;;;5.05;;
68543;SDS011;55534;52.222;5.156;2023-06-10T06:42:16;9.05;;;4.97;;
68543;SDS011;55534;52.222;5.156;2023-06-10T06:44:54;8.35;;;5.65;;
68543;SDS011;55534;52.222;5.156;2023-06-10T06:47:20;7.55;;;4.72;;
68543;SDS011;55534;52.222;5.156;2023-06-10T06:49:46;7.97;;;5.05;;
68543;SDS011;55534;52.222;5.156;2023-06-10T06:52:12;7.57;;;4.47;;
68543;SDS011;55534;52.222;5.156;2023-06-10T06:54:38;6.88;;;4.80;;
68543;SDS011;55534;52.222;5.156;2023-06-10T06:57:03;8.07;;;4.88;;
68543;SDS011;55534;52.222;5.156;2023-06-10T06:59:29;9.07;;;4.68;;
68543;SDS011;55534;52.222;5.156;2023-06-10T07:01:54;8.35;;;4.95;;
68543;SDS011;55534;52.222;5.156;2023-06-10T07:04:20;9.60;;;5.30;;
68543;SDS011;55534;52.222;5.156;2023-06-10T07:06:48;6.47;;;4.28;;
68543;SDS011;55534;52.222;5.156;2023-06-10T07:09:14;7.82;;;4.40;;
68543;SDS011;55534;52.222;5.156;2023-06-10T07:11:39;10.52;;;4.75;;
68543;SDS011;55534;52.222;5.156;2023-06-10T07:14:05;10.82;;;5.40;;
68543;SDS011;55534;52.222;5.156;2023-06-10T07:16:31;8.05;;;4.63;;
68543;SDS011;55534;52.222;5.156;2023-06-10T07:18:56;7.57;;;4.57;;
68543;SDS011;55534;52.222;5.156;2023-06-10T07:21:22;7.53;;;4.68;;
68543;SDS011;55534;52.222;5.156;2023-06-10T07:23:48;9.38;;;5.43;;
68543;SDS011;55534;52.222;5.156;2023-06-10T07:26:14;8.90;;;4.88;;
68543;SDS011;55534;52.222;5.156;2023-06-10T07:28:40;7.43;;;5.18;;
68543;SDS011;55534;52.222;5.156;2023-06-10T07:31:06;6.35;;;4.53;;
68543;SDS011;55534;52.222;5.156;2023-06-10T07:33:32;7.25;;;4.80;;
68543;SDS011;55534;52.222;5.156;2023-06-10T07:35:58;8.02;;;5.22;;
68543;SDS011;55534;52.222;5.156;2023-06-10T07:38:24;5.97;;;4.63;;
68543;SDS011;55534;52.222;5.156;2023-06-10T07:40:50;6.18;;;4.10;;
68543;SDS011;55534;52.222;5.156;2023-06-10T07:43:15;10.85;;;5.10;;
68543;SDS011;55534;52.222;5.156;2023-06-10T07:45:41;6.40;;;4.50;;
68543;SDS011;55534;52.222;5.156;2023-06-10T07:48:07;8.45;;;4.45;;
68543;SDS011;55534;52.222;5.156;2023-06-10T07:50:32;7.82;;;4.30;;
68543;SDS011;55534;52.222;5.156;2023-06-10T07:52:58;6.35;;;4.25;;
68543;SDS011;55534;52.222;5.156;2023-06-10T07:55:24;7.68;;;4.43;;
68543;SDS011;55534;52.222;5.156;2023-06-10T07:57:51;7.90;;;4.18;;
68543;SDS011;55534;52.222;5.156;2023-06-10T08:00:17;7.68;;;4.30;;
68543;SDS011;55534;52.222;5.156;2023-06-10T08:02:43;8.00;;;3.83;;
68543;SDS011;55534;52.222;5.156;2023-06-10T08:05:08;7.00;;;4.03;;
68543;SDS011;55534;52.222;5.156;2023-06-10T08:07:34;7.72;;;4.72;;
68543;SDS011;55534;52.222;5.156;2023-06-10T08:10:00;8.50;;;5.15;;
68543;SDS011;55534;52.222;5.156;2023-06-10T08:12:25;7.35;;;3.75;;
68543;SDS011;55534;52.222;5.156;2023-06-10T08:14:51;11.00;;;4.90;;
68543;SDS011;55534;52.222;5.156;2023-06-10T08:17:16;9.32;;;4.45;;
68543;SDS011;55534;52.222;5.156;2023-06-10T08:19:41;8.55;;;5.07;;
68543;SDS011;55534;52.222;5.156;2023-06-10T08:22:07;7.70;;;4.47;;
68543;SDS011;55534;52.222;5.156;2023-06-10T08:24:32;8.65;;;4.13;;
68543;SDS011;55534;52.222;5.156;2023-06-10T08:26:57;5.45;;;3.97;;
68543;SDS011;55534;52.222;5.156;2023-06-10T08:29:23;7.63;;;4.68;;
68543;SDS011;55534;52.222;5.156;2023-06-10T08:31:49;7.00;;;4.25;;
68543;SDS011;55534;52.222;5.156;2023-06-10T08:34:14;9.23;;;5.03;;
68543;SDS011;55534;52.222;5.156;2023-06-10T08:36:39;8.68;;;5.10;;
68543;SDS011;55534;52.222;5.156;2023-06-10T08:39:05;6.50;;;4.30;;
68543;SDS011;55534;52.222;5.156;2023-06-10T08:41:32;7.18;;;4.50;;
68543;SDS011;55534;52.222;5.156;2023-06-10T08:46:29;7.63;;;4.10;;
68543;SDS011;55534;52.222;5.156;2023-06-10T08:48:57;6.13;;;4.18;;
68543;SDS011;55534;52.222;5.156;2023-06-10T08:51:28;9.23;;;4.63;;
68543;SDS011;55534;52.222;5.156;2023-06-10T08:54:17;8.60;;;4.20;;
68543;SDS011;55534;52.222;5.156;2023-06-10T08:56:45;7.53;;;4.50;;
68543;SDS011;55534;52.222;5.156;2023-06-10T08:59:15;6.15;;;4.18;;
68543;SDS011;55534;52.222;5.156;2023-06-10T09:01:44;10.40;;;3.83;;
68543;SDS011;55534;52.222;5.156;2023-06-10T09:04:10;7.60;;;4.47;;
68543;SDS011;55534;52.222;5.156;2023-06-10T09:06:36;8.07;;;4.22;;
68543;SDS011;55534;52.222;5.156;2023-06-10T09:09:04;8.63;;;4.00;;
68543;SDS011;55534;52.222;5.156;2023-06-10T09:11:31;5.75;;;3.53;;
68543;SDS011;55534;52.222;5.156;2023-06-10T09:13:57;6.97;;;4.43;;
68543;SDS011;55534;52.222;5.156;2023-06-10T09:16:23;8.98;;;3.33;;
68543;SDS011;55534;52.222;5.156;2023-06-10T09:18:49;4.88;;;3.55;;
68543;SDS011;55534;52.222;5.156;2023-06-10T09:21:21;7.15;;;3.85;;
68543;SDS011;55534;52.222;5.156;2023-06-10T09:23:47;10.98;;;4.07;;
68543;SDS011;55534;52.222;5.156;2023-06-10T09:26:13;8.63;;;3.40;;
68543;SDS011;55534;52.222;5.156;2023-06-10T09:28:38;8.07;;;3.47;;
68543;SDS011;55534;52.222;5.156;2023-06-10T09:31:05;7.90;;;4.50;;
68543;SDS011;55534;52.222;5.156;2023-06-10T09:33:32;6.70;;;3.63;;
68543;SDS011;55534;52.222;5.156;2023-06-10T09:35:59;7.72;;;4.38;;
68543;SDS011;55534;52.222;5.156;2023-06-10T09:38:29;5.97;;;3.28;;
68543;SDS011;55534;52.222;5.156;2023-06-10T09:40:56;8.70;;;3.72;;
68543;SDS011;55534;52.222;5.156;2023-06-10T09:43:22;7.85;;;3.78;;
68543;SDS011;55534;52.222;5.156;2023-06-10T09:45:50;9.65;;;3.85;;
68543;SDS011;55534;52.222;5.156;2023-06-10T09:48:18;7.03;;;3.63;;
68543;SDS011;55534;52.222;5.156;2023-06-10T09:50:44;7.90;;;3.83;;
68543;SDS011;55534;52.222;5.156;2023-06-10T09:53:11;7.30;;;3.55;;
68543;SDS011;55534;52.222;5.156;2023-06-10T09:55:38;12.27;;;4.22;;
68543;SDS011;55534;52.222;5.156;2023-06-10T09:58:04;8.90;;;3.50;;
68543;SDS011;55534;52.222;5.156;2023-06-10T10:00:31;5.95;;;4.28;;
68543;SDS011;55534;52.222;5.156;2023-06-10T10:02:58;5.45;;;3.20;;
68543;SDS011;55534;52.222;5.156;2023-06-10T10:05:24;8.77;;;3.92;;
68543;SDS011;55534;52.222;5.156;2023-06-10T10:07:50;5.93;;;3.25;;
68543;SDS011;55534;52.222;5.156;2023-06-10T10:10:17;8.80;;;4.45;;
68543;SDS011;55534;52.222;5.156;2023-06-10T10:12:44;7.35;;;3.70;;
68543;SDS011;55534;52.222;5.156;2023-06-10T10:15:11;5.72;;;3.65;;
68543;SDS011;55534;52.222;5.156;2023-06-10T10:17:37;7.05;;;3.92;;
68543;SDS011;55534;52.222;5.156;2023-06-10T10:20:05;6.25;;;4.25;;
68543;SDS011;55534;52.222;5.156;2023-06-10T10:22:40;6.75;;;4.05;;
68543;SDS011;55534;52.222;5.156;2023-06-10T10:25:10;6.80;;;3.72;;
68543;SDS011;55534;52.222;5.156;2023-06-10T10:30:27;5.88;;;3.75;;
68543;SDS011;55534;52.222;5.156;2023-06-10T10:32:57;9.88;;;4.88;;
68543;SDS011;55534;52.222;5.156;2023-06-10T10:35:30;8.57;;;4.32;;
68543;SDS011;55534;52.222;5.156;2023-06-10T10:37:57;3.95;;;2.63;;
68543;SDS011;55534;52.222;5.156;2023-06-10T10:40:23;6.22;;;4.03;;
68543;SDS011;55534;52.222;5.156;2023-06-10T10:42:51;3.78;;;3.25;;
68543;SDS011;55534;52.222;5.156;2023-06-10T10:45:17;6.05;;;3.33;;
68543;SDS011;55534;52.222;5.156;2023-06-10T10:47:45;4.78;;;3.38;;
68543;SDS011;55534;52.222;5.156;2023-06-10T10:50:18;4.85;;;3.10;;
68543;SDS011;55534;52.222;5.156;2023-06-10T10:52:54;8.80;;;3.25;;
68543;SDS011;55534;52.222;5.156;2023-06-10T10:55:22;7.25;;;3.67;;
68543;SDS011;55534;52.222;5.156;2023-06-10T10:58:05;6.18;;;3.42;;
68543;SDS011;55534;52.222;5.156;2023-06-10T11:00:32;5.20;;;3.28;;
68543;SDS011;55534;52.222;5.156;2023-06-10T11:02:58;4.57;;;3.92;;
68543;SDS011;55534;52.222;5.156;2023-06-10T11:05:58;4.13;;;3.05;;
68543;SDS011;55534;52.222;5.156;2023-06-10T11:08:45;5.40;;;3.15;;
68543;SDS011;55534;52.222;5.156;2023-06-10T11:11:17;7.20;;;3.47;;
68543;SDS011;55534;52.222;5.156;2023-06-10T11:16:26;5.25;;;3.30;;
68543;SDS011;55534;52.222;5.156;2023-06-10T11:18:55;4.95;;;3.10;;
68543;SDS011;55534;52.222;5.156;2023-06-10T11:21:23;8.75;;;3.40;;
68543;SDS011;55534;52.222;5.156;2023-06-10T11:23:50;6.22;;;3.30;;
68543;SDS011;55534;52.222;5.156;2023-06-10T11:31:24;6.43;;;3.45;;
68543;SDS011;55534;52.222;5.156;2023-06-10T11:33:54;5.07;;;3.35;;
68543;SDS011;55534;52.222;5.156;2023-06-10T11:36:20;6.55;;;3.60;;
68543;SDS011;55534;52.222;5.156;2023-06-10T11:38:46;6.28;;;3.25;;
68543;SDS011;55534;52.222;5.156;2023-06-10T11:41:13;4.78;;;3.65;;
68543;SDS011;55534;52.222;5.156;2023-06-10T11:43:42;5.15;;;3.50;;
68543;SDS011;55534;52.222;5.156;2023-06-10T11:46:09;5.63;;;2.80;;
68543;SDS011;55534;52.222;5.156;2023-06-10T11:48:35;11.18;;;3.47;;
68543;SDS011;55534;52.222;5.156;2023-06-10T11:51:00;4.40;;;3.05;;
68543;SDS011;55534;52.222;5.156;2023-06-10T11:53:25;4.88;;;3.25;;
68543;SDS011;55534;52.222;5.156;2023-06-10T11:55:51;5.80;;;3.50;;
68543;SDS011;55534;52.222;5.156;2023-06-10T11:58:18;9.63;;;3.15;;
68543;SDS011;55534;52.222;5.156;2023-06-10T12:00:54;5.90;;;3.05;;
68543;SDS011;55534;52.222;5.156;2023-06-10T12:03:24;6.25;;;3.55;;
68543;SDS011;55534;52.222;5.156;2023-06-10T12:06:00;6.50;;;3.15;;
68543;SDS011;55534;52.222;5.156;2023-06-10T12:08:27;4.85;;;3.35;;
68543;SDS011;55534;52.222;5.156;2023-06-10T12:10:53;4.18;;;2.85;;
68543;SDS011;55534;52.222;5.156;2023-06-10T12:13:19;6.82;;;3.20;;
68543;SDS011;55534;52.222;5.156;2023-06-10T12:15:45;5.13;;;3.10;;
68543;SDS011;55534;52.222;5.156;2023-06-10T12:18:19;8.45;;;3.25;;
68543;SDS011;55534;52.222;5.156;2023-06-10T12:20:46;4.57;;;3.38;;
68543;SDS011;55534;52.222;5.156;2023-06-10T12:23:12;6.10;;;3.28;;
68543;SDS011;55534;52.222;5.156;2023-06-10T12:25:38;6.65;;;3.35;;
68543;SDS011;55534;52.222;5.156;2023-06-10T12:28:04;5.30;;;3.28;;
68543;SDS011;55534;52.222;5.156;2023-06-10T12:30:31;6.40;;;3.28;;
68543;SDS011;55534;52.222;5.156;2023-06-10T12:32:56;5.07;;;3.45;;
68543;SDS011;55534;52.222;5.156;2023-06-10T12:35:23;10.65;;;3.80;;
68543;SDS011;55534;52.222;5.156;2023-06-10T12:38:03;10.02;;;4.10;;
68543;SDS011;55534;52.222;5.156;2023-06-10T12:40:36;4.03;;;2.88;;
68543;SDS011;55534;52.222;5.156;2023-06-10T12:43:04;5.15;;;3.33;;
68543;SDS011;55534;52.222;5.156;2023-06-10T12:45:30;5.15;;;3.35;;
68543;SDS011;55534;52.222;5.156;2023-06-10T12:48:30;7.72;;;3.33;;
68543;SDS011;55534;52.222;5.156;2023-06-10T12:50:53;7.13;;;3.28;;
68543;SDS011;55534;52.222;5.156;2023-06-10T12:53:20;3.88;;;3.40;;
68543;SDS011;55534;52.222;5.156;2023-06-10T12:55:46;6.28;;;3.47;;
68543;SDS011;55534;52.222;5.156;2023-06-10T12:58:12;8.35;;;3.83;;
68543;SDS011;55534;52.222;5.156;2023-06-10T13:00:38;4.72;;;3.15;;
68543;SDS011;55534;52.222;5.156;2023-06-10T13:03:05;7.75;;;3.80;;
68543;SDS011;55534;52.222;5.156;2023-06-10T13:05:31;7.32;;;3.10;;
68543;SDS011;55534;52.222;5.156;2023-06-10T13:07:56;5.68;;;2.97;;
68543;SDS011;55534;52.222;5.156;2023-06-10T13:10:22;4.65;;;2.78;;
68543;SDS011;55534;52.222;5.156;2023-06-10T13:12:48;6.97;;;3.35;;
68543;SDS011;55534;52.222;5.156;2023-06-10T13:15:14;5.13;;;3.40;;
68543;SDS011;55534;52.222;5.156;2023-06-10T13:17:40;4.60;;;3.67;;
68543;SDS011;55534;52.222;5.156;2023-06-10T13:20:06;5.07;;;3.20;;
68543;SDS011;55534;52.222;5.156;2023-06-10T13:22:32;5.00;;;3.38;;
68543;SDS011;55534;52.222;5.156;2023-06-10T13:25:00;6.57;;;3.40;;
68543;SDS011;55534;52.222;5.156;2023-06-10T13:27:29;4.50;;;3.15;;
68543;SDS011;55534;52.222;5.156;2023-06-10T13:29:54;8.40;;;3.55;;
68543;SDS011;55534;52.222;5.156;2023-06-10T13:32:20;4.63;;;3.58;;
68543;SDS011;55534;52.222;5.156;2023-06-10T13:34:46;5.75;;;3.53;;
68543;SDS011;55534;52.222;5.156;2023-06-10T13:37:18;5.78;;;3.17;;
68543;SDS011;55534;52.222;5.156;2023-06-10T13:39:44;3.75;;;3.13;;
68543;SDS011;55534;52.222;5.156;2023-06-10T13:42:12;5.28;;;3.33;;
68543;SDS011;55534;52.222;5.156;2023-06-10T13:44:37;8.13;;;4.15;;
68543;SDS011;55534;52.222;5.156;2023-06-10T13:47:03;4.40;;;3.40;;
68543;SDS011;55534;52.222;5.156;2023-06-10T13:49:28;4.55;;;3.53;;
68543;SDS011;55534;52.222;5.156;2023-06-10T13:51:54;7.03;;;3.20;;
68543;SDS011;55534;52.222;5.156;2023-06-10T13:54:19;4.68;;;2.90;;
68543;SDS011;55534;52.222;5.156;2023-06-10T13:56:46;4.20;;;3.15;;
68543;SDS011;55534;52.222;5.156;2023-06-10T13:59:11;4.35;;;2.63;;
68543;SDS011;55534;52.222;5.156;2023-06-10T14:01:37;7.72;;;2.83;;
68543;SDS011;55534;52.222;5.156;2023-06-10T14:04:02;4.57;;;3.50;;
68543;SDS011;55534;52.222;5.156;2023-06-10T14:06:28;4.50;;;2.80;;
68543;SDS011;55534;52.222;5.156;2023-06-10T14:08:53;4.55;;;3.13;;
68543;SDS011;55534;52.222;5.156;2023-06-10T14:11:20;4.90;;;3.22;;
68543;SDS011;55534;52.222;5.156;2023-06-10T14:13:46;7.63;;;3.03;;
68543;SDS011;55534;52.222;5.156;2023-06-10T14:16:11;3.45;;;2.88;;
68543;SDS011;55534;52.222;5.156;2023-06-10T14:18:37;4.68;;;2.97;;
68543;SDS011;55534;52.222;5.156;2023-06-10T14:21:02;5.03;;;3.53;;
68543;SDS011;55534;52.222;5.156;2023-06-10T14:23:27;4.90;;;3.50;;
68543;SDS011;55534;52.222;5.156;2023-06-10T14:25:53;8.27;;;3.60;;
68543;SDS011;55534;52.222;5.156;2023-06-10T14:28:18;6.25;;;3.03;;
68543;SDS011;55534;52.222;5.156;2023-06-10T14:30:43;8.88;;;3.03;;
68543;SDS011;55534;52.222;5.156;2023-06-10T14:33:09;3.97;;;2.83;;
68543;SDS011;55534;52.222;5.156;2023-06-10T14:35:34;4.25;;;2.60;;
68543;SDS011;55534;52.222;5.156;2023-06-10T14:38:00;5.65;;;2.90;;
68543;SDS011;55534;52.222;5.156;2023-06-10T14:40:25;3.40;;;2.67;;
68543;SDS011;55534;52.222;5.156;2023-06-10T14:42:53;3.90;;;3.05;;
68543;SDS011;55534;52.222;5.156;2023-06-10T14:45:19;6.15;;;2.72;;
68543;SDS011;55534;52.222;5.156;2023-06-10T14:47:44;6.75;;;3.10;;
68543;SDS011;55534;52.222;5.156;2023-06-10T14:50:12;3.50;;;2.90;;
68543;SDS011;55534;52.222;5.156;2023-06-10T14:52:37;4.65;;;3.05;;
68543;SDS011;55534;52.222;5.156;2023-06-10T14:55:03;6.07;;;3.13;;
68543;SDS011;55534;52.222;5.156;2023-06-10T14:57:28;7.05;;;3.28;;
68543;SDS011;55534;52.222;5.156;2023-06-10T14:59:54;5.75;;;2.63;;
68543;SDS011;55534;52.222;5.156;2023-06-10T15:02:21;6.22;;;2.92;;
68543;SDS011;55534;52.222;5.156;2023-06-10T15:04:47;4.80;;;2.72;;
68543;SDS011;55534;52.222;5.156;2023-06-10T15:07:12;3.72;;;1.92;;